Kailua, HI

8:42 AM HST on July 26, 2016 (GMT -1000)
Keolu Hills | | Change Station

Elev 160 ft 21.37 °N, 157.73 °W | Updated 300 days ago

Partly Cloudy
Partly Cloudy
83 °F
Feels Like 88 °F
N
11
Wind Variable Wind from ENE
Gusts mph

Today
High -- | Low -- °F
--% Chance of Precip.
Yesterday
High -- | Low -- °F
Precip. -- in
Pressure 30.00 in
Visibility 7.0 miles
Clouds Few 1900 ft
Mostly Cloudy 2900 ft
Overcast 3600 ft
Heat Index 88 °F
Dew Point 74 °F
Humidity 73%
Rainfall in
Snow Depth Not available.
6:02 AM 7:12 PM
Waning Gibbous, 52% visible
SPECI PHNG 261819Z VRB05KT 7SM FEW019 BKN029 OVC036 27/23 A3000 RMK AO2 T02720228 $
Pressure 30.00 in
Visibility 7.0 miles
Clouds Few 1900 ft
Mostly Cloudy 2900 ft
Overcast 3600 ft
Heat Index 88 °F
Dew Point 74 °F
Humidity 73%
Rainfall in
Snow Depth Not available.
6:02 AM 7:12 PM
Waning Gibbous, 52% visible
SPECI PHNG 261819Z VRB05KT 7SM FEW019 BKN029 OVC036 27/23 A3000 RMK AO2 T02720228 $

10-Day Weather Forecast

Almanac

Astronomy

Jul. 26, 2016 Rise Set
Actual Time
Civil Twilight
Nautical Twilight
Astronomical Twilight
Moon
Length of Visible Light
Length of Day
Tomorrow will be .
, % of the Moon is Illuminated

Today's Extremes

State Highs State Lows

Community

WunderPhotos

Upload Photos

1,927,653 photos uploaded!

WunderBlog® & News

Nearby

Air Quality

  Air Quality AQ Index Pollutant
Not available.

Snow Depth

Station Depth Elevation

Earthquake Activity

City Distance Mag. Time & Date
Minimum magnitude displayed is 2.5.

Coastal Water Temperatures

Place Temperature

Stations

Nearby Weather Stations

Station Location Temp. Windchill Dew Point Humidity Wind Precip. Elev Updated Type
                   

Watches & Warnings

There are currently no watches in effect.